sensor_id;sensor_type;location;lat;lon;timestamp;pressure;altitude;pressure_sealevel;temperature;humidity
61345;BME280;47216;42.656;23.232;2023-05-01T00:02:11;93882.47;;;9.85;72.11
61345;BME280;47216;42.656;23.232;2023-05-01T00:04:37;93881.22;;;9.87;71.50
61345;BME280;47216;42.656;23.232;2023-05-01T00:07:04;93849.94;;;9.65;71.52
61345;BME280;47216;42.656;23.232;2023-05-01T00:09:31;93874.63;;;9.80;72.39
61345;BME280;47216;42.656;23.232;2023-05-01T00:11:58;93874.63;;;9.80;72.10
61345;BME280;47216;42.656;23.232;2023-05-01T00:14:27;93879.63;;;9.86;71.83
61345;BME280;47216;42.656;23.232;2023-05-01T00:16:55;93882.47;;;9.85;71.96
61345;BME280;47216;42.656;23.232;2023-05-01T00:19:22;93884.53;;;9.83;71.66
61345;BME280;47216;42.656;23.232;2023-05-01T00:21:49;93877.22;;;9.80;71.95
61345;BME280;47216;42.656;23.232;2023-05-01T00:24:17;93877.13;;;9.75;71.66
61345;BME280;47216;42.656;23.232;2023-05-01T00:26:44;93856.94;;;9.43;72.49
61345;BME280;47216;42.656;23.232;2023-05-01T00:29:11;93873.56;;;9.42;73.02
61345;BME280;47216;42.656;23.232;2023-05-01T00:31:37;93882.88;;;9.38;73.07
61345;BME280;47216;42.656;23.232;2023-05-01T00:34:07;93871.22;;;9.23;73.54
61345;BME280;47216;42.656;23.232;2023-05-01T00:36:34;93868.16;;;9.10;74.11
61345;BME280;47216;42.656;23.232;2023-05-01T00:39:01;93882.91;;;9.04;74.18
61345;BME280;47216;42.656;23.232;2023-05-01T00:41:28;93884.88;;;8.97;74.89
61345;BME280;47216;42.656;23.232;2023-05-01T00:43:55;93879.56;;;8.92;76.17
61345;BME280;47216;42.656;23.232;2023-05-01T00:46:22;93886.28;;;8.88;75.66
61345;BME280;47216;42.656;23.232;2023-05-01T00:48:50;93884.78;;;8.92;76.03
61345;BME280;47216;42.656;23.232;2023-05-01T00:51:19;93894.81;;;9.00;75.98
61345;BME280;47216;42.656;23.232;2023-05-01T00:53:46;93879.13;;;8.95;75.89
61345;BME280;47216;42.656;23.232;2023-05-01T00:56:14;93893.16;;;9.11;75.83
61345;BME280;47216;42.656;23.232;2023-05-01T00:58:41;93898.22;;;9.17;75.38
61345;BME280;47216;42.656;23.232;2023-05-01T01:01:08;93855.47;;;8.96;75.17
61345;BME280;47216;42.656;23.232;2023-05-01T01:03:35;93907.81;;;9.34;75.00
61345;BME280;47216;42.656;23.232;2023-05-01T01:06:06;93890.78;;;9.09;75.45
61345;BME280;47216;42.656;23.232;2023-05-01T01:08:39;93910.72;;;9.20;75.64
61345;BME280;47216;42.656;23.232;2023-05-01T01:11:13;93897.88;;;9.14;75.95
61345;BME280;47216;42.656;23.232;2023-05-01T01:13:47;93898.03;;;9.07;75.81
61345;BME280;47216;42.656;23.232;2023-05-01T01:16:21;93901.56;;;9.01;75.99
61345;BME280;47216;42.656;23.232;2023-05-01T01:18:53;93909.38;;;9.01;75.65
61345;BME280;47216;42.656;23.232;2023-05-01T01:21:25;93910.56;;;9.10;75.81
61345;BME280;47216;42.656;23.232;2023-05-01T01:24:29;93912.38;;;9.10;75.32
61345;BME280;47216;42.656;23.232;2023-05-01T01:27:38;93904.28;;;9.06;76.58
61345;BME280;47216;42.656;23.232;2023-05-01T01:30:31;93919.78;;;9.01;77.08
61345;BME280;47216;42.656;23.232;2023-05-01T01:33:24;;;;8.87;
61345;BME280;47216;42.656;23.232;2023-05-01T01:35:56;93916.19;;;8.73;77.54
61345;BME280;47216;42.656;23.232;2023-05-01T01:38:29;93920.09;;;8.88;77.02
61345;BME280;47216;42.656;23.232;2023-05-01T01:41:07;93920.00;;;8.82;76.75
61345;BME280;47216;42.656;23.232;2023-05-01T01:43:38;93922.44;;;8.89;76.65
61345;BME280;47216;42.656;23.232;2023-05-01T01:46:06;93925.47;;;8.98;77.09
61345;BME280;47216;42.656;23.232;2023-05-01T01:48:37;93923.41;;;9.00;76.39
61345;BME280;47216;42.656;23.232;2023-05-01T01:51:12;93925.22;;;8.99;76.73
61345;BME280;47216;42.656;23.232;2023-05-01T01:53:40;93921.03;;;8.98;75.65
61345;BME280;47216;42.656;23.232;2023-05-01T01:56:11;93893.91;;;8.77;76.65
61345;BME280;47216;42.656;23.232;2023-05-01T01:58:41;93903.16;;;9.02;76.31
61345;BME280;47216;42.656;23.232;2023-05-01T02:01:11;93907.81;;;9.00;77.55
61345;BME280;47216;42.656;23.232;2023-05-01T02:03:40;93898.66;;;8.80;76.69
61345;BME280;47216;42.656;23.232;2023-05-01T02:06:09;93904.03;;;8.91;76.65
61345;BME280;47216;42.656;23.232;2023-05-01T02:08:39;93904.56;;;8.93;76.21
61345;BME280;47216;42.656;23.232;2023-05-01T02:11:07;93909.38;;;9.01;76.92
61345;BME280;47216;42.656;23.232;2023-05-01T02:13:35;93893.63;;;8.91;76.60
61345;BME280;47216;42.656;23.232;2023-05-01T02:16:05;93910.56;;;9.10;76.06
61345;BME280;47216;42.656;23.232;2023-05-01T02:18:33;93898.66;;;8.97;75.22
61345;BME280;47216;42.656;23.232;2023-05-01T02:21:02;93903.25;;;9.07;75.70
61345;BME280;47216;42.656;23.232;2023-05-01T02:23:32;93900.78;;;9.00;76.27
61345;BME280;47216;42.656;23.232;2023-05-01T02:26:02;93896.38;;;9.01;75.14
61345;BME280;47216;42.656;23.232;2023-05-01T02:28:29;93885.41;;;8.82;75.77
61345;BME280;47216;42.656;23.232;2023-05-01T02:30:57;93892.06;;;8.90;76.26
61345;BME280;47216;42.656;23.232;2023-05-01T02:33:24;93888.97;;;8.93;76.30
61345;BME280;47216;42.656;23.232;2023-05-01T02:35:51;93902.44;;;8.90;76.22
61345;BME280;47216;42.656;23.232;2023-05-01T02:38:18;93896.78;;;8.93;76.28
61345;BME280;47216;42.656;23.232;2023-05-01T02:40:50;93875.72;;;8.77;76.63
61345;BME280;47216;42.656;23.232;2023-05-01T02:43:19;93895.03;;;8.81;76.77
61345;BME280;47216;42.656;23.232;2023-05-01T02:45:49;93903.91;;;8.69;77.16
61345;BME280;47216;42.656;23.232;2023-05-01T02:48:19;93903.78;;;8.47;77.51
61345;BME280;47216;42.656;23.232;2023-05-01T02:50:48;93875.00;;;8.36;78.12
61345;BME280;47216;42.656;23.232;2023-05-01T02:53:16;93900.63;;;8.45;77.50
61345;BME280;47216;42.656;23.232;2023-05-01T02:55:43;93912.13;;;8.49;77.88
61345;BME280;47216;42.656;23.232;2023-05-01T02:58:15;93888.00;;;8.36;78.50
61345;BME280;47216;42.656;23.232;2023-05-01T03:00:42;93906.00;;;8.55;77.88
61345;BME280;47216;42.656;23.232;2023-05-01T03:03:09;93907.25;;;8.52;78.33
61345;BME280;47216;42.656;23.232;2023-05-01T03:05:37;93883.00;;;8.47;77.46
61345;BME280;47216;42.656;23.232;2023-05-01T03:08:04;93893.38;;;8.47;77.53
61345;BME280;47216;42.656;23.232;2023-05-01T03:10:31;93892.97;;;8.26;78.48
61345;BME280;47216;42.656;23.232;2023-05-01T03:12:58;93907.75;;;8.37;78.36
61345;BME280;47216;42.656;23.232;2023-05-01T03:15:27;93910.03;;;8.22;78.54
61345;BME280;47216;42.656;23.232;2023-05-01T03:17:54;93913.59;;;8.16;79.37
61345;BME280;47216;42.656;23.232;2023-05-01T03:20:20;93906.91;;;8.08;79.71
61345;BME280;47216;42.656;23.232;2023-05-01T03:22:47;93924.88;;;8.10;79.41
61345;BME280;47216;42.656;23.232;2023-05-01T03:25:14;93913.94;;;8.08;78.87
61345;BME280;47216;42.656;23.232;2023-05-01T03:27:41;93914.50;;;8.10;79.83
61345;BME280;47216;42.656;23.232;2023-05-01T03:30:09;93912.13;;;8.08;79.37
61345;BME280;47216;42.656;23.232;2023-05-01T03:32:37;93919.34;;;8.06;79.75
61345;BME280;47216;42.656;23.232;2023-05-01T03:35:05;93923.75;;;8.06;79.77
61345;BME280;47216;42.656;23.232;2023-05-01T03:37:32;93920.81;;;8.14;79.85
61345;BME280;47216;42.656;23.232;2023-05-01T03:39:59;93924.06;;;8.21;79.17
61345;BME280;47216;42.656;23.232;2023-05-01T03:42:26;93914.38;;;8.16;79.06
61345;BME280;47216;42.656;23.232;2023-05-01T03:44:53;93917.41;;;8.25;79.27
61345;BME280;47216;42.656;23.232;2023-05-01T03:47:19;93917.00;;;8.33;78.63
61345;BME280;47216;42.656;23.232;2023-05-01T03:49:48;93901.47;;;8.21;78.86
61345;BME280;47216;42.656;23.232;2023-05-01T03:52:15;93920.72;;;8.37;78.66
61345;BME280;47216;42.656;23.232;2023-05-01T03:54:42;93933.63;;;8.32;78.82
61345;BME280;47216;42.656;23.232;2023-05-01T03:57:09;93939.38;;;8.46;78.90
61345;BME280;47216;42.656;23.232;2023-05-01T03:59:36;93937.19;;;8.55;78.72
61345;BME280;47216;42.656;23.232;2023-05-01T04:02:03;93942.09;;;8.68;77.91
61345;BME280;47216;42.656;23.232;2023-05-01T04:04:30;93948.38;;;8.84;78.21
61345;BME280;47216;42.656;23.232;2023-05-01T04:06:59;93949.41;;;9.00;77.28
61345;BME280;47216;42.656;23.232;2023-05-01T04:09:27;93954.88;;;9.15;77.46
61345;BME280;47216;42.656;23.232;2023-05-01T04:11:54;93960.00;;;9.27;76.35
61345;BME280;47216;42.656;23.232;2023-05-01T04:14:21;93950.00;;;9.36;75.74
61345;BME280;47216;42.656;23.232;2023-05-01T04:16:48;93953.47;;;9.41;75.72
61345;BME280;47216;42.656;23.232;2023-05-01T04:19:18;93955.44;;;9.51;75.12
61345;BME280;47216;42.656;23.232;2023-05-01T04:21:45;93957.66;;;9.59;75.05
61345;BME280;47216;42.656;23.232;2023-05-01T04:24:13;93950.84;;;9.58;74.31
61345;BME280;47216;42.656;23.232;2023-05-01T04:26:41;93959.13;;;9.72;74.80
61345;BME280;47216;42.656;23.232;2023-05-01T04:29:08;93956.69;;;9.65;74.55
61345;BME280;47216;42.656;23.232;2023-05-01T04:31:35;93943.44;;;9.67;75.04
61345;BME280;47216;42.656;23.232;2023-05-01T04:34:03;93950.06;;;9.58;75.21
61345;BME280;47216;42.656;23.232;2023-05-01T04:36:30;93928.63;;;9.34;75.07
61345;BME280;47216;42.656;23.232;2023-05-01T04:38:57;93953.63;;;9.35;75.00
61345;BME280;47216;42.656;23.232;2023-05-01T04:41:27;93959.88;;;9.34;75.09
61345;BME280;47216;42.656;23.232;2023-05-01T04:43:53;93941.06;;;9.15;75.53
61345;BME280;47216;42.656;23.232;2023-05-01T04:46:20;93962.38;;;9.29;75.92
61345;BME280;47216;42.656;23.232;2023-05-01T04:48:47;93950.38;;;9.28;75.42
61345;BME280;47216;42.656;23.232;2023-05-01T04:51:14;93948.66;;;9.50;76.63
61345;BME280;47216;42.656;23.232;2023-05-01T04:53:41;93956.22;;;9.68;75.32
61345;BME280;47216;42.656;23.232;2023-05-01T04:56:08;93945.94;;;9.79;76.05
61345;BME280;47216;42.656;23.232;2023-05-01T04:58:36;93959.00;;;10.01;74.93
61345;BME280;47216;42.656;23.232;2023-05-01T05:01:03;93929.03;;;9.98;73.95
61345;BME280;47216;42.656;23.232;2023-05-01T05:03:30;93931.84;;;10.19;73.68
61345;BME280;47216;42.656;23.232;2023-05-01T05:05:57;93951.56;;;10.54;73.55
61345;BME280;47216;42.656;23.232;2023-05-01T05:08:24;93923.94;;;10.52;73.31
61345;BME280;47216;42.656;23.232;2023-05-01T05:10:56;93966.69;;;11.01;72.46
61345;BME280;47216;42.656;23.232;2023-05-01T05:13:23;93950.03;;;11.07;72.33
61345;BME280;47216;42.656;23.232;2023-05-01T05:15:51;93963.91;;;11.45;71.93
61345;BME280;47216;42.656;23.232;2023-05-01T05:18:18;93955.09;;;11.51;71.65
61345;BME280;47216;42.656;23.232;2023-05-01T05:20:48;93968.00;;;11.68;71.77
61345;BME280;47216;42.656;23.232;2023-05-01T05:23:15;93971.25;;;11.85;71.81
61345;BME280;47216;42.656;23.232;2023-05-01T05:25:42;93977.91;;;11.98;71.51
61345;BME280;47216;42.656;23.232;2023-05-01T05:28:08;93971.16;;;12.07;71.25
61345;BME280;47216;42.656;23.232;2023-05-01T05:30:35;93974.78;;;12.01;71.47
61345;BME280;47216;42.656;23.232;2023-05-01T05:33:06;93985.84;;;12.13;71.50
61345;BME280;47216;42.656;23.232;2023-05-01T05:35:33;93995.78;;;12.22;71.26
61345;BME280;47216;42.656;23.232;2023-05-01T05:38:00;93980.72;;;12.39;70.99
61345;BME280;47216;42.656;23.232;2023-05-01T05:40:29;93996.50;;;12.59;70.21
61345;BME280;47216;42.656;23.232;2023-05-01T05:42:56;93994.47;;;12.77;69.11
61345;BME280;47216;42.656;23.232;2023-05-01T05:45:23;94003.38;;;12.81;69.38
61345;BME280;47216;42.656;23.232;2023-05-01T05:47:49;93999.75;;;12.87;68.82
61345;BME280;47216;42.656;23.232;2023-05-01T05:50:17;93996.63;;;13.00;68.21
61345;BME280;47216;42.656;23.232;2023-05-01T05:52:44;94002.91;;;12.94;68.30
61345;BME280;47216;42.656;23.232;2023-05-01T05:55:11;94002.97;;;13.15;68.66
61345;BME280;47216;42.656;23.232;2023-05-01T05:57:38;94000.34;;;13.20;67.31
61345;BME280;47216;42.656;23.232;2023-05-01T06:00:06;94000.84;;;13.17;67.59
61345;BME280;47216;42.656;23.232;2023-05-01T06:02:33;93996.97;;;13.35;67.18
61345;BME280;47216;42.656;23.232;2023-05-01T06:05:00;93998.56;;;13.46;67.35
61345;BME280;47216;42.656;23.232;2023-05-01T06:07:28;94001.97;;;13.62;67.19
61345;BME280;47216;42.656;23.232;2023-05-01T06:09:55;93997.78;;;13.76;67.12
61345;BME280;47216;42.656;23.232;2023-05-01T06:12:25;94006.69;;;13.96;66.19
61345;BME280;47216;42.656;23.232;2023-05-01T06:14:54;94005.13;;;13.90;65.87
61345;BME280;47216;42.656;23.232;2023-05-01T06:17:21;94006.44;;;13.87;66.32
61345;BME280;47216;42.656;23.232;2023-05-01T06:19:48;93985.97;;;13.99;66.10
61345;BME280;47216;42.656;23.232;2023-05-01T06:22:16;93999.84;;;14.10;65.88
61345;BME280;47216;42.656;23.232;2023-05-01T06:24:45;94006.69;;;14.01;66.52
61345;BME280;47216;42.656;23.232;2023-05-01T06:27:11;94008.47;;;14.21;65.99
61345;BME280;47216;42.656;23.232;2023-05-01T06:29:38;93997.47;;;14.24;65.44
61345;BME280;47216;42.656;23.232;2023-05-01T06:32:05;94004.00;;;14.32;65.52
61345;BME280;47216;42.656;23.232;2023-05-01T06:34:32;93995.34;;;14.31;65.97
61345;BME280;47216;42.656;23.232;2023-05-01T06:36:59;94006.53;;;14.62;65.84
61345;BME280;47216;42.656;23.232;2023-05-01T06:39:25;94000.75;;;14.70;65.19
61345;BME280;47216;42.656;23.232;2023-05-01T06:41:54;94008.63;;;14.70;65.25
61345;BME280;47216;42.656;23.232;2023-05-01T06:44:21;94000.13;;;14.94;64.34
61345;BME280;47216;42.656;23.232;2023-05-01T06:46:48;94005.84;;;15.01;62.50
61345;BME280;47216;42.656;23.232;2023-05-01T06:49:15;94015.22;;;15.18;62.01
61345;BME280;47216;42.656;23.232;2023-05-01T06:51:41;94012.56;;;15.28;62.43
61345;BME280;47216;42.656;23.232;2023-05-01T06:54:08;94016.69;;;15.34;62.16
61345;BME280;47216;42.656;23.232;2023-05-01T06:56:35;94020.63;;;15.42;62.56
61345;BME280;47216;42.656;23.232;2023-05-01T06:59:03;94016.38;;;15.46;62.73
61345;BME280;47216;42.656;23.232;2023-05-01T07:01:30;94009.16;;;15.62;61.52
61345;BME280;47216;42.656;23.232;2023-05-01T07:03:57;94015.94;;;15.73;61.33
61345;BME280;47216;42.656;23.232;2023-05-01T07:06:23;94019.63;;;15.72;62.11
61345;BME280;47216;42.656;23.232;2023-05-01T07:08:50;94017.22;;;15.81;60.79
61345;BME280;47216;42.656;23.232;2023-05-01T07:11:17;94019.59;;;15.77;61.95
61345;BME280;47216;42.656;23.232;2023-05-01T07:13:44;94021.59;;;15.90;62.20
61345;BME280;47216;42.656;23.232;2023-05-01T07:16:12;94018.09;;;16.00;60.94
61345;BME280;47216;42.656;23.232;2023-05-01T07:18:39;94012.91;;;16.19;60.99
61345;BME280;47216;42.656;23.232;2023-05-01T07:21:06;94023.56;;;16.33;60.13
61345;BME280;47216;42.656;23.232;2023-05-01T07:23:34;94031.19;;;16.34;59.95
61345;BME280;47216;42.656;23.232;2023-05-01T07:26:01;94029.41;;;16.54;59.18
61345;BME280;47216;42.656;23.232;2023-05-01T07:28:28;94026.25;;;16.52;58.70
61345;BME280;47216;42.656;23.232;2023-05-01T07:30:55;94025.78;;;16.50;56.35
61345;BME280;47216;42.656;23.232;2023-05-01T07:33:23;94020.47;;;16.55;57.70
61345;BME280;47216;42.656;23.232;2023-05-01T07:35:50;94025.72;;;16.55;58.87
61345;BME280;47216;42.656;23.232;2023-05-01T07:38:17;94015.72;;;16.52;58.55
61345;BME280;47216;42.656;23.232;2023-05-01T07:40:44;94028.97;;;16.71;56.90
61345;BME280;47216;42.656;23.232;2023-05-01T07:43:11;94027.06;;;16.76;55.22
61345;BME280;47216;42.656;23.232;2023-05-01T07:45:38;94021.78;;;16.76;54.68
61345;BME280;47216;42.656;23.232;2023-05-01T07:48:05;94025.06;;;16.68;56.50
61345;BME280;47216;42.656;23.232;2023-05-01T07:50:34;94027.06;;;16.76;56.62
61345;BME280;47216;42.656;23.232;2023-05-01T07:53:01;94026.41;;;16.90;56.27
61345;BME280;47216;42.656;23.232;2023-05-01T07:55:28;94025.50;;;16.99;55.95
61345;BME280;47216;42.656;23.232;2023-05-01T07:57:54;94029.69;;;17.00;56.26
61345;BME280;47216;42.656;23.232;2023-05-01T08:00:22;94025.16;;;17.06;54.33
61345;BME280;47216;42.656;23.232;2023-05-01T08:02:50;94025.09;;;17.11;55.94
61345;BME280;47216;42.656;23.232;2023-05-01T08:05:17;94028.81;;;17.29;54.93
61345;BME280;47216;42.656;23.232;2023-05-01T08:07:45;94016.31;;;17.35;53.99
61345;BME280;47216;42.656;23.232;2023-05-01T08:10:12;94018.91;;;17.40;54.85
61345;BME280;47216;42.656;23.232;2023-05-01T08:12:39;94018.53;;;17.47;54.52
61345;BME280;47216;42.656;23.232;2023-05-01T08:15:07;94020.59;;;17.69;55.17
61345;BME280;47216;42.656;23.232;2023-05-01T08:17:34;94022.09;;;17.75;52.74
61345;BME280;47216;42.656;23.232;2023-05-01T08:20:01;94023.50;;;17.86;52.69
61345;BME280;47216;42.656;23.232;2023-05-01T08:22:28;94026.09;;;17.91;51.39
61345;BME280;47216;42.656;23.232;2023-05-01T08:24:56;94025.22;;;17.77;50.94
61345;BME280;47216;42.656;23.232;2023-05-01T08:27:22;94027.72;;;17.87;52.57
61345;BME280;47216;42.656;23.232;2023-05-01T08:29:49;94016.69;;;17.85;50.67
61345;BME280;47216;42.656;23.232;2023-05-01T08:32:17;94029.00;;;17.90;51.16
61345;BME280;47216;42.656;23.232;2023-05-01T08:34:44;94025.78;;;17.93;49.49
61345;BME280;47216;42.656;23.232;2023-05-01T08:37:11;94018.38;;;17.76;50.31
61345;BME280;47216;42.656;23.232;2023-05-01T08:39:38;94017.38;;;17.91;50.49
61345;BME280;47216;42.656;23.232;2023-05-01T08:42:07;94024.34;;;18.00;49.38
61345;BME280;47216;42.656;23.232;2023-05-01T08:44:37;94016.25;;;18.11;48.49
61345;BME280;47216;42.656;23.232;2023-05-01T08:47:10;94023.78;;;18.17;48.92
61345;BME280;47216;42.656;23.232;2023-05-01T08:49:39;94016.56;;;18.23;48.99
61345;BME280;47216;42.656;23.232;2023-05-01T08:52:08;94015.28;;;18.20;49.02
61345;BME280;47216;42.656;23.232;2023-05-01T08:54:38;94011.38;;;18.18;49.46
61345;BME280;47216;42.656;23.232;2023-05-01T08:57:09;94006.69;;;18.15;48.98
61345;BME280;47216;42.656;23.232;2023-05-01T08:59:37;94005.75;;;18.38;47.99
61345;BME280;47216;42.656;23.232;2023-05-01T09:02:05;94008.09;;;18.54;47.86
61345;BME280;47216;42.656;23.232;2023-05-01T09:04:34;94005.16;;;18.55;48.57
61345;BME280;47216;42.656;23.232;2023-05-01T09:07:01;94008.22;;;18.76;48.77
61345;BME280;47216;42.656;23.232;2023-05-01T09:09:29;94006.75;;;18.70;47.04
61345;BME280;47216;42.656;23.232;2023-05-01T09:11:59;94014.75;;;18.51;46.20
61345;BME280;47216;42.656;23.232;2023-05-01T09:14:30;94010.25;;;18.52;44.23
61345;BME280;47216;42.656;23.232;2023-05-01T09:16:58;93997.34;;;18.64;45.75
61345;BME280;47216;42.656;23.232;2023-05-01T09:19:25;94006.25;;;18.96;44.18
61345;BME280;47216;42.656;23.232;2023-05-01T09:21:52;94003.03;;;18.99;45.50
61345;BME280;47216;42.656;23.232;2023-05-01T09:24:21;93999.69;;;19.07;44.89
61345;BME280;47216;42.656;23.232;2023-05-01T09:26:49;94008.56;;;19.25;44.30
61345;BME280;47216;42.656;23.232;2023-05-01T09:32:14;94003.13;;;19.44;43.25
61345;BME280;47216;42.656;23.232;2023-05-01T09:34:41;94006.56;;;19.44;43.27
61345;BME280;47216;42.656;23.232;2023-05-01T09:37:11;93997.44;;;19.50;45.15
61345;BME280;47216;42.656;23.232;2023-05-01T09:39:40;94006.34;;;19.41;44.81
61345;BME280;47216;42.656;23.232;2023-05-01T09:42:06;94005.47;;;19.45;43.99
61345;BME280;47216;42.656;23.232;2023-05-01T09:44:39;94003.25;;;19.61;42.74
61345;BME280;47216;42.656;23.232;2023-05-01T09:47:07;94001.47;;;19.70;44.28
61345;BME280;47216;42.656;23.232;2023-05-01T09:49:46;94002.22;;;19.85;44.22
61345;BME280;47216;42.656;23.232;2023-05-01T09:52:13;94001.63;;;19.88;43.41
61345;BME280;47216;42.656;23.232;2023-05-01T09:54:41;93992.59;;;19.89;42.92
61345;BME280;47216;42.656;23.232;2023-05-01T09:57:08;93993.19;;;19.86;44.18
61345;BME280;47216;42.656;23.232;2023-05-01T09:59:35;93988.88;;;19.90;44.16
61345;BME280;47216;42.656;23.232;2023-05-01T10:02:03;93986.91;;;20.04;44.20
61345;BME280;47216;42.656;23.232;2023-05-01T10:04:31;93987.69;;;20.05;43.66
61345;BME280;47216;42.656;23.232;2023-05-01T10:07:10;93987.91;;;20.17;44.55
61345;BME280;47216;42.656;23.232;2023-05-01T10:09:37;93970.19;;;20.26;43.50
61345;BME280;47216;42.656;23.232;2023-05-01T10:12:05;93979.44;;;20.29;43.44
61345;BME280;47216;42.656;23.232;2023-05-01T10:14:32;93971.69;;;20.41;42.49
61345;BME280;47216;42.656;23.232;2023-05-01T10:17:16;93978.84;;;20.41;42.46
61345;BME280;47216;42.656;23.232;2023-05-01T10:19:44;93973.34;;;20.60;42.87
61345;BME280;47216;42.656;23.232;2023-05-01T10:22:12;93981.75;;;20.62;42.58
61345;BME280;47216;42.656;23.232;2023-05-01T10:24:39;93984.81;;;20.55;42.92
61345;BME280;47216;42.656;23.232;2023-05-01T10:27:06;93971.59;;;20.24;41.66
61345;BME280;47216;42.656;23.232;2023-05-01T10:29:34;93983.41;;;20.18;43.22
61345;BME280;47216;42.656;23.232;2023-05-01T10:32:03;93981.16;;;20.02;43.04
61345;BME280;47216;42.656;23.232;2023-05-01T10:34:33;93992.28;;;20.13;42.95
61345;BME280;47216;42.656;23.232;2023-05-01T10:37:04;93976.34;;;20.04;42.67
61345;BME280;47216;42.656;23.232;2023-05-01T10:39:35;93989.06;;;20.25;43.44
61345;BME280;47216;42.656;23.232;2023-05-01T10:42:03;93981.50;;;20.41;43.28
61345;BME280;47216;42.656;23.232;2023-05-01T10:44:32;93984.88;;;20.64;41.75
61345;BME280;47216;42.656;23.232;2023-05-01T10:47:44;93988.16;;;20.69;42.37
61345;BME280;47216;42.656;23.232;2023-05-01T10:50:12;93971.69;;;20.41;41.78
61345;BME280;47216;42.656;23.232;2023-05-01T10:55:42;93979.59;;;20.32;42.29
61345;BME280;47216;42.656;23.232;2023-05-01T10:58:10;93977.38;;;20.57;42.55
61345;BME280;47216;42.656;23.232;2023-05-01T11:00:38;93966.38;;;20.81;42.67
61345;BME280;47216;42.656;23.232;2023-05-01T11:03:35;93976.88;;;21.04;42.93
61345;BME280;47216;42.656;23.232;2023-05-01T11:06:04;93974.53;;;21.11;43.09
61345;BME280;47216;42.656;23.232;2023-05-01T11:08:32;93981.88;;;21.14;42.06
61345;BME280;47216;42.656;23.232;2023-05-01T11:14:02;93975.28;;;21.03;42.24
61345;BME280;47216;42.656;23.232;2023-05-01T11:16:42;93975.00;;;21.13;42.16
61345;BME280;47216;42.656;23.232;2023-05-01T11:19:43;93988.88;;;21.18;42.12
61345;BME280;47216;42.656;23.232;2023-05-01T11:21:58;93973.16;;;21.22;41.07
61345;BME280;47216;42.656;23.232;2023-05-01T11:24:31;93986.25;;;21.27;42.02
61345;BME280;47216;42.656;23.232;2023-05-01T11:26:58;93979.53;;;21.04;40.35
61345;BME280;47216;42.656;23.232;2023-05-01T11:29:30;93977.16;;;20.85;40.77
61345;BME280;47216;42.656;23.232;2023-05-01T11:31:58;93987.44;;;20.86;41.39
61345;BME280;47216;42.656;23.232;2023-05-01T11:34:26;93981.81;;;20.88;41.17
61345;BME280;47216;42.656;23.232;2023-05-01T11:36:53;93980.88;;;20.75;41.61
61345;BME280;47216;42.656;23.232;2023-05-01T11:39:20;93983.47;;;20.58;42.03
61345;BME280;47216;42.656;23.232;2023-05-01T11:41:47;93976.50;;;20.70;40.88
61345;BME280;47216;42.656;23.232;2023-05-01T11:44:15;93973.88;;;20.88;41.62
61345;BME280;47216;42.656;23.232;2023-05-01T11:46:43;93976.03;;;20.77;42.25
61345;BME280;47216;42.656;23.232;2023-05-01T11:49:10;93972.78;;;20.97;42.83
61345;BME280;47216;42.656;23.232;2023-05-01T11:51:37;93965.28;;;20.82;41.49
61345;BME280;47216;42.656;23.232;2023-05-01T11:54:05;93977.63;;;20.87;41.09
61345;BME280;47216;42.656;23.232;2023-05-01T11:56:33;93973.91;;;21.05;42.63
61345;BME280;47216;42.656;23.232;2023-05-01T11:59:08;93971.56;;;21.21;43.67
61345;BME280;47216;42.656;23.232;2023-05-01T12:01:37;93967.53;;;21.32;42.92
61345;BME280;47216;42.656;23.232;2023-05-01T12:04:06;93965.97;;;21.31;42.39
61345;BME280;47216;42.656;23.232;2023-05-01T12:06:37;93966.75;;;21.23;42.43
61345;BME280;47216;42.656;23.232;2023-05-01T12:09:09;93967.53;;;21.15;41.54
61345;BME280;47216;42.656;23.232;2023-05-01T12:11:37;93972.53;;;21.08;42.44
61345;BME280;47216;42.656;23.232;2023-05-01T12:14:04;93981.75;;;21.19;42.67
61345;BME280;47216;42.656;23.232;2023-05-01T12:16:31;93982.63;;;20.97;43.12
61345;BME280;47216;42.656;23.232;2023-05-01T12:18:58;93984.50;;;20.96;43.64
61345;BME280;47216;42.656;23.232;2023-05-01T12:21:26;93978.41;;;21.05;43.73
61345;BME280;47216;42.656;23.232;2023-05-01T12:23:53;93969.66;;;20.95;43.41
61345;BME280;47216;42.656;23.232;2023-05-01T12:26:23;93966.41;;;20.90;43.43
61345;BME280;47216;42.656;23.232;2023-05-01T12:28:55;93976.06;;;20.94;42.89
61345;BME280;47216;42.656;23.232;2023-05-01T12:31:22;93979.81;;;21.02;42.07
61345;BME280;47216;42.656;23.232;2023-05-01T12:33:53;93977.63;;;20.95;41.74
61345;BME280;47216;42.656;23.232;2023-05-01T12:36:21;93974.25;;;21.12;42.67
61345;BME280;47216;42.656;23.232;2023-05-01T12:38:57;93967.06;;;21.22;41.22
61345;BME280;47216;42.656;23.232;2023-05-01T12:41:35;93959.41;;;21.20;40.12
61345;BME280;47216;42.656;23.232;2023-05-01T12:44:15;93967.81;;;21.05;40.88
61345;BME280;47216;42.656;23.232;2023-05-01T12:46:42;93977.03;;;20.98;39.04
61345;BME280;47216;42.656;23.232;2023-05-01T12:49:15;93981.84;;;20.96;38.74
61345;BME280;47216;42.656;23.232;2023-05-01T12:51:45;93982.16;;;20.55;39.27
61345;BME280;47216;42.656;23.232;2023-05-01T12:54:19;93981.13;;;20.65;39.71
61345;BME280;47216;42.656;23.232;2023-05-01T12:56:45;93984.78;;;20.46;39.81
61345;BME280;47216;42.656;23.232;2023-05-01T12:59:22;93985.75;;;19.88;39.66
61345;BME280;47216;42.656;23.232;2023-05-01T13:01:56;93992.72;;;19.84;40.42
61345;BME280;47216;42.656;23.232;2023-05-01T13:04:24;93994.06;;;19.59;40.50
61345;BME280;47216;42.656;23.232;2023-05-01T13:06:51;93982.47;;;19.68;40.46
61345;BME280;47216;42.656;23.232;2023-05-01T13:09:21;93988.13;;;19.53;40.37
61345;BME280;47216;42.656;23.232;2023-05-01T13:11:58;93981.28;;;19.38;41.01
61345;BME280;47216;42.656;23.232;2023-05-01T13:14:28;93992.84;;;19.42;40.69